sensor_id;sensor_type;location;lat;lon;timestamp;P1;durP1;ratioP1;P2;durP2;ratioP2
16689;SDS011;8458;52.220;9.884;2023-08-20T00:02:01;14.47;;;13.77;;
16689;SDS011;8458;52.220;9.884;2023-08-20T00:04:29;15.00;;;14.03;;
16689;SDS011;8458;52.220;9.884;2023-08-20T00:06:58;15.73;;;14.88;;
16689;SDS011;8458;52.220;9.884;2023-08-20T00:09:25;15.33;;;14.43;;
16689;SDS011;8458;52.220;9.884;2023-08-20T00:11:52;15.47;;;14.57;;
16689;SDS011;8458;52.220;9.884;2023-08-20T00:14:20;15.67;;;14.77;;
16689;SDS011;8458;52.220;9.884;2023-08-20T00:16:46;15.50;;;14.70;;
16689;SDS011;8458;52.220;9.884;2023-08-20T00:19:13;14.52;;;13.82;;
16689;SDS011;8458;52.220;9.884;2023-08-20T00:21:41;15.18;;;14.23;;
16689;SDS011;8458;52.220;9.884;2023-08-20T00:24:09;14.80;;;14.00;;
16689;SDS011;8458;52.220;9.884;2023-08-20T00:26:36;13.87;;;13.17;;
16689;SDS011;8458;52.220;9.884;2023-08-20T00:29:03;14.03;;;13.27;;
16689;SDS011;8458;52.220;9.884;2023-08-20T00:31:31;14.20;;;13.50;;
16689;SDS011;8458;52.220;9.884;2023-08-20T00:33:58;14.00;;;13.30;;
16689;SDS011;8458;52.220;9.884;2023-08-20T00:36:24;13.33;;;12.67;;
16689;SDS011;8458;52.220;9.884;2023-08-20T00:38:50;13.83;;;13.03;;
16689;SDS011;8458;52.220;9.884;2023-08-20T00:41:17;13.57;;;12.67;;
16689;SDS011;8458;52.220;9.884;2023-08-20T00:43:43;13.00;;;12.30;;
16689;SDS011;8458;52.220;9.884;2023-08-20T00:46:10;12.67;;;11.97;;
16689;SDS011;8458;52.220;9.884;2023-08-20T00:48:38;13.43;;;12.73;;
16689;SDS011;8458;52.220;9.884;2023-08-20T00:51:04;12.50;;;11.70;;
16689;SDS011;8458;52.220;9.884;2023-08-20T00:53:31;13.10;;;12.30;;
16689;SDS011;8458;52.220;9.884;2023-08-20T00:55:58;13.15;;;12.40;;
16689;SDS011;8458;52.220;9.884;2023-08-20T00:58:24;12.20;;;11.60;;
16689;SDS011;8458;52.220;9.884;2023-08-20T01:00:51;13.83;;;13.03;;
16689;SDS011;8458;52.220;9.884;2023-08-20T01:03:17;13.80;;;13.00;;
16689;SDS011;8458;52.220;9.884;2023-08-20T01:05:46;14.00;;;13.20;;
16689;SDS011;8458;52.220;9.884;2023-08-20T01:08:21;12.87;;;12.20;;
16689;SDS011;8458;52.220;9.884;2023-08-20T01:10:56;13.33;;;12.57;;
16689;SDS011;8458;52.220;9.884;2023-08-20T01:13:26;15.33;;;14.33;;
16689;SDS011;8458;52.220;9.884;2023-08-20T01:15:52;13.80;;;13.00;;
16689;SDS011;8458;52.220;9.884;2023-08-20T01:18:19;13.97;;;13.07;;
16689;SDS011;8458;52.220;9.884;2023-08-20T01:20:47;13.90;;;12.97;;
16689;SDS011;8458;52.220;9.884;2023-08-20T01:23:24;14.07;;;13.27;;
16689;SDS011;8458;52.220;9.884;2023-08-20T01:26:13;13.27;;;12.47;;
16689;SDS011;8458;52.220;9.884;2023-08-20T01:28:53;14.27;;;13.37;;
16689;SDS011;8458;52.220;9.884;2023-08-20T01:31:20;14.30;;;13.50;;
16689;SDS011;8458;52.220;9.884;2023-08-20T01:33:46;13.60;;;12.77;;
16689;SDS011;8458;52.220;9.884;2023-08-20T01:36:14;14.13;;;13.33;;
16689;SDS011;8458;52.220;9.884;2023-08-20T01:38:43;13.67;;;12.87;;
16689;SDS011;8458;52.220;9.884;2023-08-20T01:41:09;13.60;;;12.80;;
16689;SDS011;8458;52.220;9.884;2023-08-20T01:43:36;12.90;;;12.20;;
16689;SDS011;8458;52.220;9.884;2023-08-20T01:46:03;13.00;;;12.03;;
16689;SDS011;8458;52.220;9.884;2023-08-20T01:48:30;12.07;;;11.40;;
16689;SDS011;8458;52.220;9.884;2023-08-20T01:50:57;11.23;;;10.60;;
16689;SDS011;8458;52.220;9.884;2023-08-20T01:53:23;10.07;;;9.47;;
16689;SDS011;8458;52.220;9.884;2023-08-20T01:55:50;9.07;;;8.47;;
16689;SDS011;8458;52.220;9.884;2023-08-20T01:58:16;9.03;;;8.30;;
16689;SDS011;8458;52.220;9.884;2023-08-20T02:00:44;8.27;;;7.77;;
16689;SDS011;8458;52.220;9.884;2023-08-20T02:03:12;7.70;;;7.20;;
16689;SDS011;8458;52.220;9.884;2023-08-20T02:05:38;7.77;;;7.17;;
16689;SDS011;8458;52.220;9.884;2023-08-20T02:08:05;7.28;;;6.78;;
16689;SDS011;8458;52.220;9.884;2023-08-20T02:10:31;6.67;;;6.37;;
16689;SDS011;8458;52.220;9.884;2023-08-20T02:12:58;7.00;;;6.60;;
16689;SDS011;8458;52.220;9.884;2023-08-20T02:15:24;7.40;;;6.90;;
16689;SDS011;8458;52.220;9.884;2023-08-20T02:17:51;7.13;;;6.63;;
16689;SDS011;8458;52.220;9.884;2023-08-20T02:20:19;7.20;;;6.63;;
16689;SDS011;8458;52.220;9.884;2023-08-20T02:22:45;7.20;;;6.70;;
16689;SDS011;8458;52.220;9.884;2023-08-20T02:25:12;7.47;;;7.07;;
16689;SDS011;8458;52.220;9.884;2023-08-20T02:27:38;6.80;;;6.40;;
16689;SDS011;8458;52.220;9.884;2023-08-20T02:30:05;7.47;;;7.00;;
16689;SDS011;8458;52.220;9.884;2023-08-20T02:32:33;7.63;;;7.20;;
16689;SDS011;8458;52.220;9.884;2023-08-20T02:34:59;7.90;;;7.40;;
16689;SDS011;8458;52.220;9.884;2023-08-20T02:37:27;7.60;;;7.10;;
16689;SDS011;8458;52.220;9.884;2023-08-20T02:39:54;7.20;;;6.80;;
16689;SDS011;8458;52.220;9.884;2023-08-20T02:42:20;7.17;;;6.67;;
16689;SDS011;8458;52.220;9.884;2023-08-20T02:44:47;7.50;;;7.00;;
16689;SDS011;8458;52.220;9.884;2023-08-20T02:47:13;7.13;;;6.60;;
16689;SDS011;8458;52.220;9.884;2023-08-20T02:49:39;7.07;;;6.47;;
16689;SDS011;8458;52.220;9.884;2023-08-20T02:52:06;7.40;;;6.90;;
16689;SDS011;8458;52.220;9.884;2023-08-20T02:54:34;7.43;;;6.83;;
16689;SDS011;8458;52.220;9.884;2023-08-20T02:57:00;6.90;;;6.40;;
16689;SDS011;8458;52.220;9.884;2023-08-20T02:59:27;6.53;;;6.13;;
16689;SDS011;8458;52.220;9.884;2023-08-20T03:01:53;6.80;;;6.33;;
16689;SDS011;8458;52.220;9.884;2023-08-20T03:04:19;6.57;;;6.17;;
16689;SDS011;8458;52.220;9.884;2023-08-20T03:06:46;6.40;;;6.10;;
16689;SDS011;8458;52.220;9.884;2023-08-20T03:09:12;6.47;;;6.07;;
16689;SDS011;8458;52.220;9.884;2023-08-20T03:11:40;6.00;;;5.70;;
16689;SDS011;8458;52.220;9.884;2023-08-20T03:14:07;6.67;;;6.27;;
16689;SDS011;8458;52.220;9.884;2023-08-20T03:16:33;6.60;;;6.10;;
16689;SDS011;8458;52.220;9.884;2023-08-20T03:18:59;6.43;;;5.93;;
16689;SDS011;8458;52.220;9.884;2023-08-20T03:21:27;6.40;;;5.97;;
16689;SDS011;8458;52.220;9.884;2023-08-20T03:23:54;6.93;;;6.53;;
16689;SDS011;8458;52.220;9.884;2023-08-20T03:26:20;6.67;;;6.27;;
16689;SDS011;8458;52.220;9.884;2023-08-20T03:28:48;6.27;;;5.97;;
16689;SDS011;8458;52.220;9.884;2023-08-20T03:31:14;6.80;;;6.40;;
16689;SDS011;8458;52.220;9.884;2023-08-20T03:33:41;6.20;;;5.80;;
16689;SDS011;8458;52.220;9.884;2023-08-20T03:36:07;6.63;;;6.13;;
16689;SDS011;8458;52.220;9.884;2023-08-20T03:38:34;5.67;;;5.27;;
16689;SDS011;8458;52.220;9.884;2023-08-20T03:41:00;6.97;;;6.33;;
16689;SDS011;8458;52.220;9.884;2023-08-20T03:43:28;6.23;;;5.83;;
16689;SDS011;8458;52.220;9.884;2023-08-20T03:45:56;6.30;;;5.90;;
16689;SDS011;8458;52.220;9.884;2023-08-20T03:48:22;6.50;;;6.07;;
16689;SDS011;8458;52.220;9.884;2023-08-20T03:50:49;5.83;;;5.43;;
16689;SDS011;8458;52.220;9.884;2023-08-20T03:53:15;6.00;;;5.60;;
16689;SDS011;8458;52.220;9.884;2023-08-20T03:55:42;5.67;;;5.37;;
16689;SDS011;8458;52.220;9.884;2023-08-20T03:58:13;5.30;;;5.00;;
16689;SDS011;8458;52.220;9.884;2023-08-20T04:00:40;4.73;;;4.53;;
16689;SDS011;8458;52.220;9.884;2023-08-20T04:03:07;5.70;;;5.30;;
16689;SDS011;8458;52.220;9.884;2023-08-20T04:05:35;5.83;;;5.43;;
16689;SDS011;8458;52.220;9.884;2023-08-20T04:08:02;5.70;;;5.30;;
16689;SDS011;8458;52.220;9.884;2023-08-20T04:10:29;5.23;;;4.83;;
16689;SDS011;8458;52.220;9.884;2023-08-20T04:12:56;5.30;;;4.90;;
16689;SDS011;8458;52.220;9.884;2023-08-20T04:15:22;5.10;;;4.80;;
16689;SDS011;8458;52.220;9.884;2023-08-20T04:17:49;5.40;;;5.00;;
16689;SDS011;8458;52.220;9.884;2023-08-20T04:20:17;5.47;;;5.10;;
16689;SDS011;8458;52.220;9.884;2023-08-20T04:22:43;5.37;;;4.97;;
16689;SDS011;8458;52.220;9.884;2023-08-20T04:25:09;5.13;;;4.70;;
16689;SDS011;8458;52.220;9.884;2023-08-20T04:27:37;4.60;;;4.30;;
16689;SDS011;8458;52.220;9.884;2023-08-20T04:30:04;4.40;;;4.10;;
16689;SDS011;8458;52.220;9.884;2023-08-20T04:32:31;4.43;;;4.13;;
16689;SDS011;8458;52.220;9.884;2023-08-20T04:34:58;4.50;;;4.20;;
16689;SDS011;8458;52.220;9.884;2023-08-20T04:37:25;4.40;;;4.10;;
16689;SDS011;8458;52.220;9.884;2023-08-20T04:39:52;4.27;;;4.07;;
16689;SDS011;8458;52.220;9.884;2023-08-20T04:42:18;4.60;;;4.30;;
16689;SDS011;8458;52.220;9.884;2023-08-20T04:44:45;4.53;;;4.13;;
16689;SDS011;8458;52.220;9.884;2023-08-20T04:47:11;4.80;;;4.50;;
16689;SDS011;8458;52.220;9.884;2023-08-20T04:49:38;4.30;;;3.90;;
16689;SDS011;8458;52.220;9.884;2023-08-20T04:52:05;4.17;;;3.87;;
16689;SDS011;8458;52.220;9.884;2023-08-20T04:54:32;4.20;;;4.00;;
16689;SDS011;8458;52.220;9.884;2023-08-20T04:56:59;3.80;;;3.50;;
16689;SDS011;8458;52.220;9.884;2023-08-20T04:59:25;4.37;;;4.07;;
16689;SDS011;8458;52.220;9.884;2023-08-20T05:01:52;4.70;;;4.20;;
16689;SDS011;8458;52.220;9.884;2023-08-20T05:04:19;4.33;;;4.03;;
16689;SDS011;8458;52.220;9.884;2023-08-20T05:06:46;3.77;;;3.47;;
16689;SDS011;8458;52.220;9.884;2023-08-20T05:09:12;4.43;;;4.13;;
16689;SDS011;8458;52.220;9.884;2023-08-20T05:11:40;4.10;;;3.80;;
16689;SDS011;8458;52.220;9.884;2023-08-20T05:14:06;4.50;;;4.20;;
16689;SDS011;8458;52.220;9.884;2023-08-20T05:16:33;4.27;;;3.97;;
16689;SDS011;8458;52.220;9.884;2023-08-20T05:18:59;4.47;;;4.07;;
16689;SDS011;8458;52.220;9.884;2023-08-20T05:21:26;4.73;;;4.30;;
16689;SDS011;8458;52.220;9.884;2023-08-20T05:23:52;4.33;;;3.93;;
16689;SDS011;8458;52.220;9.884;2023-08-20T05:26:19;4.80;;;4.40;;
16689;SDS011;8458;52.220;9.884;2023-08-20T05:28:47;4.60;;;4.30;;
16689;SDS011;8458;52.220;9.884;2023-08-20T05:31:13;4.20;;;3.80;;
16689;SDS011;8458;52.220;9.884;2023-08-20T05:33:40;4.63;;;4.33;;
16689;SDS011;8458;52.220;9.884;2023-08-20T05:36:06;4.40;;;4.00;;
16689;SDS011;8458;52.220;9.884;2023-08-20T05:38:32;4.37;;;4.00;;
16689;SDS011;8458;52.220;9.884;2023-08-20T05:40:59;4.73;;;4.33;;
16689;SDS011;8458;52.220;9.884;2023-08-20T05:43:25;4.20;;;3.93;;
16689;SDS011;8458;52.220;9.884;2023-08-20T05:45:53;4.50;;;4.20;;
16689;SDS011;8458;52.220;9.884;2023-08-20T05:48:20;4.27;;;3.97;;
16689;SDS011;8458;52.220;9.884;2023-08-20T05:50:46;4.17;;;3.77;;
16689;SDS011;8458;52.220;9.884;2023-08-20T05:53:13;4.10;;;3.80;;
16689;SDS011;8458;52.220;9.884;2023-08-20T05:55:39;4.03;;;3.63;;
16689;SDS011;8458;52.220;9.884;2023-08-20T05:58:06;4.33;;;4.03;;
16689;SDS011;8458;52.220;9.884;2023-08-20T06:00:32;4.20;;;3.80;;
16689;SDS011;8458;52.220;9.884;2023-08-20T06:03:00;3.60;;;3.30;;
16689;SDS011;8458;52.220;9.884;2023-08-20T06:05:27;4.23;;;3.47;;
16689;SDS011;8458;52.220;9.884;2023-08-20T06:07:53;3.47;;;3.17;;
16689;SDS011;8458;52.220;9.884;2023-08-20T06:10:20;3.70;;;3.40;;
16689;SDS011;8458;52.220;9.884;2023-08-20T06:12:46;4.37;;;4.07;;
16689;SDS011;8458;52.220;9.884;2023-08-20T06:15:13;4.03;;;3.80;;
16689;SDS011;8458;52.220;9.884;2023-08-20T06:17:39;3.93;;;3.53;;
16689;SDS011;8458;52.220;9.884;2023-08-20T06:20:08;4.73;;;3.93;;
16689;SDS011;8458;52.220;9.884;2023-08-20T06:22:36;3.87;;;3.57;;
16689;SDS011;8458;52.220;9.884;2023-08-20T06:25:03;3.50;;;3.20;;
16689;SDS011;8458;52.220;9.884;2023-08-20T06:27:30;4.00;;;3.70;;
16689;SDS011;8458;52.220;9.884;2023-08-20T06:29:57;4.60;;;4.10;;
16689;SDS011;8458;52.220;9.884;2023-08-20T06:32:25;4.20;;;3.80;;
16689;SDS011;8458;52.220;9.884;2023-08-20T06:34:51;4.57;;;4.23;;
16689;SDS011;8458;52.220;9.884;2023-08-20T06:37:19;4.23;;;3.83;;
16689;SDS011;8458;52.220;9.884;2023-08-20T06:39:45;4.43;;;4.03;;
16689;SDS011;8458;52.220;9.884;2023-08-20T06:42:12;5.23;;;4.30;;
16689;SDS011;8458;52.220;9.884;2023-08-20T06:44:38;4.43;;;4.00;;
16689;SDS011;8458;52.220;9.884;2023-08-20T06:47:05;4.60;;;3.70;;
16689;SDS011;8458;52.220;9.884;2023-08-20T06:49:31;4.10;;;3.80;;
16689;SDS011;8458;52.220;9.884;2023-08-20T06:51:58;5.10;;;3.90;;
16689;SDS011;8458;52.220;9.884;2023-08-20T06:54:26;4.33;;;3.60;;
16689;SDS011;8458;52.220;9.884;2023-08-20T06:56:52;3.80;;;3.47;;
16689;SDS011;8458;52.220;9.884;2023-08-20T06:59:18;3.47;;;2.80;;
16689;SDS011;8458;52.220;9.884;2023-08-20T07:01:45;3.47;;;3.17;;
16689;SDS011;8458;52.220;9.884;2023-08-20T07:04:11;3.50;;;3.20;;
16689;SDS011;8458;52.220;9.884;2023-08-20T07:06:38;3.87;;;2.87;;
16689;SDS011;8458;52.220;9.884;2023-08-20T07:09:05;2.90;;;2.70;;
16689;SDS011;8458;52.220;9.884;2023-08-20T07:11:32;3.50;;;3.13;;
16689;SDS011;8458;52.220;9.884;2023-08-20T07:13:59;3.10;;;2.80;;
16689;SDS011;8458;52.220;9.884;2023-08-20T07:16:25;2.67;;;2.33;;
16689;SDS011;8458;52.220;9.884;2023-08-20T07:18:52;2.30;;;2.10;;
16689;SDS011;8458;52.220;9.884;2023-08-20T07:21:18;2.13;;;1.93;;
16689;SDS011;8458;52.220;9.884;2023-08-20T07:23:45;2.53;;;2.10;;
16689;SDS011;8458;52.220;9.884;2023-08-20T07:26:11;2.47;;;2.27;;
16689;SDS011;8458;52.220;9.884;2023-08-20T07:28:39;2.47;;;2.27;;
16689;SDS011;8458;52.220;9.884;2023-08-20T07:31:25;3.03;;;2.15;;
16689;SDS011;8458;52.220;9.884;2023-08-20T07:33:52;2.03;;;1.87;;
16689;SDS011;8458;52.220;9.884;2023-08-20T07:36:20;2.60;;;2.07;;
16689;SDS011;8458;52.220;9.884;2023-08-20T07:38:48;2.07;;;1.70;;
16689;SDS011;8458;52.220;9.884;2023-08-20T07:41:14;2.43;;;1.93;;
16689;SDS011;8458;52.220;9.884;2023-08-20T07:43:42;2.85;;;2.03;;
16689;SDS011;8458;52.220;9.884;2023-08-20T07:46:09;3.13;;;2.50;;
16689;SDS011;8458;52.220;9.884;2023-08-20T07:48:36;2.50;;;2.30;;
16689;SDS011;8458;52.220;9.884;2023-08-20T07:51:02;2.20;;;2.00;;
16689;SDS011;8458;52.220;9.884;2023-08-20T07:53:29;2.30;;;1.98;;
16689;SDS011;8458;52.220;9.884;2023-08-20T07:55:56;2.67;;;2.00;;
16689;SDS011;8458;52.220;9.884;2023-08-20T07:58:23;2.20;;;1.55;;
16689;SDS011;8458;52.220;9.884;2023-08-20T08:00:51;2.77;;;2.10;;
16689;SDS011;8458;52.220;9.884;2023-08-20T08:03:17;2.20;;;1.60;;
16689;SDS011;8458;52.220;9.884;2023-08-20T08:05:45;1.90;;;1.80;;
16689;SDS011;8458;52.220;9.884;2023-08-20T08:08:12;1.70;;;1.60;;
16689;SDS011;8458;52.220;9.884;2023-08-20T08:10:38;2.28;;;1.75;;
16689;SDS011;8458;52.220;9.884;2023-08-20T08:13:05;2.15;;;1.77;;
16689;SDS011;8458;52.220;9.884;2023-08-20T08:15:31;2.60;;;1.55;;
16689;SDS011;8458;52.220;9.884;2023-08-20T08:17:59;2.45;;;2.13;;
16689;SDS011;8458;52.220;9.884;2023-08-20T08:20:25;2.58;;;2.00;;
16689;SDS011;8458;52.220;9.884;2023-08-20T08:22:52;2.38;;;1.80;;
16689;SDS011;8458;52.220;9.884;2023-08-20T08:25:18;2.58;;;1.52;;
16689;SDS011;8458;52.220;9.884;2023-08-20T08:27:45;2.00;;;1.80;;
16689;SDS011;8458;52.220;9.884;2023-08-20T08:30:11;2.53;;;1.90;;
16689;SDS011;8458;52.220;9.884;2023-08-20T08:32:39;2.65;;;2.00;;
16689;SDS011;8458;52.220;9.884;2023-08-20T08:35:07;2.65;;;2.15;;
16689;SDS011;8458;52.220;9.884;2023-08-20T08:37:34;2.60;;;1.80;;
16689;SDS011;8458;52.220;9.884;2023-08-20T08:40:01;3.78;;;2.08;;
16689;SDS011;8458;52.220;9.884;2023-08-20T08:42:30;2.58;;;2.00;;
16689;SDS011;8458;52.220;9.884;2023-08-20T08:44:59;2.10;;;1.85;;
16689;SDS011;8458;52.220;9.884;2023-08-20T08:47:25;2.05;;;1.90;;
16689;SDS011;8458;52.220;9.884;2023-08-20T08:49:52;2.45;;;1.95;;
16689;SDS011;8458;52.220;9.884;2023-08-20T08:52:23;2.13;;;2.00;;
16689;SDS011;8458;52.220;9.884;2023-08-20T08:54:50;2.25;;;1.75;;
16689;SDS011;8458;52.220;9.884;2023-08-20T08:57:17;1.80;;;1.70;;
16689;SDS011;8458;52.220;9.884;2023-08-20T08:59:44;2.50;;;1.80;;
16689;SDS011;8458;52.220;9.884;2023-08-20T09:02:11;2.38;;;1.58;;
16689;SDS011;8458;52.220;9.884;2023-08-20T09:04:39;2.72;;;1.58;;
16689;SDS011;8458;52.220;9.884;2023-08-20T09:07:05;2.92;;;1.70;;
16689;SDS011;8458;52.220;9.884;2023-08-20T09:09:41;2.53;;;1.80;;
16689;SDS011;8458;52.220;9.884;2023-08-20T09:12:11;2.00;;;1.70;;
16689;SDS011;8458;52.220;9.884;2023-08-20T09:14:39;1.73;;;1.63;;
16689;SDS011;8458;52.220;9.884;2023-08-20T09:17:05;6.70;;;1.75;;
16689;SDS011;8458;52.220;9.884;2023-08-20T09:19:35;1.60;;;1.38;;
16689;SDS011;8458;52.220;9.884;2023-08-20T09:22:02;2.10;;;1.27;;
16689;SDS011;8458;52.220;9.884;2023-08-20T09:24:32;1.67;;;1.40;;
16689;SDS011;8458;52.220;9.884;2023-08-20T09:27:01;2.03;;;1.38;;
16689;SDS011;8458;52.220;9.884;2023-08-20T09:29:31;2.25;;;1.52;;
16689;SDS011;8458;52.220;9.884;2023-08-20T09:32:00;1.30;;;1.20;;
16689;SDS011;8458;52.220;9.884;2023-08-20T09:34:35;1.30;;;1.20;;
16689;SDS011;8458;52.220;9.884;2023-08-20T09:37:03;2.00;;;1.40;;
16689;SDS011;8458;52.220;9.884;2023-08-20T09:39:33;1.38;;;1.05;;
16689;SDS011;8458;52.220;9.884;2023-08-20T09:42:01;1.88;;;1.63;;
16689;SDS011;8458;52.220;9.884;2023-08-20T09:44:28;1.23;;;1.13;;
16689;SDS011;8458;52.220;9.884;2023-08-20T09:46:59;1.58;;;1.40;;
16689;SDS011;8458;52.220;9.884;2023-08-20T09:49:26;1.75;;;1.17;;
16689;SDS011;8458;52.220;9.884;2023-08-20T09:51:57;1.10;;;1.10;;
16689;SDS011;8458;52.220;9.884;2023-08-20T09:54:26;1.38;;;1.08;;
16689;SDS011;8458;52.220;9.884;2023-08-20T09:57:01;1.20;;;1.02;;
16689;SDS011;8458;52.220;9.884;2023-08-20T09:59:33;1.20;;;1.02;;
16689;SDS011;8458;52.220;9.884;2023-08-20T10:02:01;1.63;;;1.17;;
16689;SDS011;8458;52.220;9.884;2023-08-20T10:04:28;1.75;;;1.05;;
16689;SDS011;8458;52.220;9.884;2023-08-20T10:06:55;1.27;;;1.17;;
16689;SDS011;8458;52.220;9.884;2023-08-20T10:09:24;2.42;;;1.20;;
16689;SDS011;8458;52.220;9.884;2023-08-20T10:11:52;1.80;;;1.25;;
16689;SDS011;8458;52.220;9.884;2023-08-20T10:14:20;1.63;;;1.10;;
16689;SDS011;8458;52.220;9.884;2023-08-20T10:16:46;1.38;;;1.20;;
16689;SDS011;8458;52.220;9.884;2023-08-20T10:19:14;1.23;;;1.13;;
16689;SDS011;8458;52.220;9.884;2023-08-20T10:21:43;1.70;;;1.10;;
16689;SDS011;8458;52.220;9.884;2023-08-20T10:24:10;2.05;;;1.10;;
16689;SDS011;8458;52.220;9.884;2023-08-20T10:26:42;1.48;;;1.20;;
16689;SDS011;8458;52.220;9.884;2023-08-20T10:29:35;1.20;;;1.10;;
16689;SDS011;8458;52.220;9.884;2023-08-20T10:32:08;1.38;;;1.10;;
16689;SDS011;8458;52.220;9.884;2023-08-20T10:34:35;1.40;;;1.20;;
16689;SDS011;8458;52.220;9.884;2023-08-20T10:37:08;1.17;;;1.08;;
16689;SDS011;8458;52.220;9.884;2023-08-20T10:39:35;1.20;;;1.10;;
16689;SDS011;8458;52.220;9.884;2023-08-20T10:42:08;1.02;;;1.00;;
16689;SDS011;8458;52.220;9.884;2023-08-20T10:47:34;1.40;;;1.00;;
16689;SDS011;8458;52.220;9.884;2023-08-20T10:50:02;1.55;;;1.10;;
16689;SDS011;8458;52.220;9.884;2023-08-20T10:52:29;1.10;;;1.00;;
16689;SDS011;8458;52.220;9.884;2023-08-20T10:54:56;1.27;;;1.02;;
16689;SDS011;8458;52.220;9.884;2023-08-20T10:57:22;1.30;;;0.90;;
16689;SDS011;8458;52.220;9.884;2023-08-20T11:00:01;1.20;;;1.10;;
16689;SDS011;8458;52.220;9.884;2023-08-20T11:02:34;1.42;;;1.08;;
16689;SDS011;8458;52.220;9.884;2023-08-20T11:05:02;1.10;;;1.00;;
16689;SDS011;8458;52.220;9.884;2023-08-20T11:07:29;1.42;;;1.05;;
16689;SDS011;8458;52.220;9.884;2023-08-20T11:09:56;1.35;;;1.10;;
16689;SDS011;8458;52.220;9.884;2023-08-20T11:12:23;1.40;;;1.10;;
16689;SDS011;8458;52.220;9.884;2023-08-20T11:14:50;1.05;;;1.02;;
16689;SDS011;8458;52.220;9.884;2023-08-20T11:17:17;1.58;;;1.10;;
16689;SDS011;8458;52.220;9.884;2023-08-20T11:19:44;1.70;;;1.13;;
16689;SDS011;8458;52.220;9.884;2023-08-20T11:22:10;1.13;;;0.93;;
16689;SDS011;8458;52.220;9.884;2023-08-20T11:24:41;0.93;;;0.93;;
16689;SDS011;8458;52.220;9.884;2023-08-20T11:27:08;1.48;;;1.27;;
16689;SDS011;8458;52.220;9.884;2023-08-20T11:29:35;1.55;;;1.20;;
16689;SDS011;8458;52.220;9.884;2023-08-20T11:32:01;1.63;;;1.20;;
16689;SDS011;8458;52.220;9.884;2023-08-20T11:34:30;1.20;;;1.10;;
16689;SDS011;8458;52.220;9.884;2023-08-20T11:36:57;1.55;;;1.23;;
16689;SDS011;8458;52.220;9.884;2023-08-20T11:39:24;1.02;;;1.02;;
16689;SDS011;8458;52.220;9.884;2023-08-20T11:41:50;1.15;;;1.05;;
16689;SDS011;8458;52.220;9.884;2023-08-20T11:44:21;1.50;;;1.40;;
16689;SDS011;8458;52.220;9.884;2023-08-20T11:46:48;1.52;;;1.02;;
16689;SDS011;8458;52.220;9.884;2023-08-20T11:49:15;1.40;;;1.20;;
16689;SDS011;8458;52.220;9.884;2023-08-20T11:51:43;1.30;;;1.20;;
16689;SDS011;8458;52.220;9.884;2023-08-20T11:54:13;1.30;;;1.30;;
16689;SDS011;8458;52.220;9.884;2023-08-20T11:56:42;1.30;;;1.20;;
16689;SDS011;8458;52.220;9.884;2023-08-20T11:59:10;1.55;;;1.20;;
16689;SDS011;8458;52.220;9.884;2023-08-20T12:01:37;1.38;;;1.27;;
16689;SDS011;8458;52.220;9.884;2023-08-20T12:04:04;2.17;;;1.40;;
16689;SDS011;8458;52.220;9.884;2023-08-20T12:06:32;1.38;;;1.20;;
16689;SDS011;8458;52.220;9.884;2023-08-20T12:09:17;1.30;;;1.20;;
16689;SDS011;8458;52.220;9.884;2023-08-20T12:11:47;2.03;;;1.55;;
16689;SDS011;8458;52.220;9.884;2023-08-20T12:14:15;1.83;;;1.60;;
16689;SDS011;8458;52.220;9.884;2023-08-20T12:16:41;1.40;;;1.30;;
16689;SDS011;8458;52.220;9.884;2023-08-20T12:19:08;1.95;;;1.30;;
16689;SDS011;8458;52.220;9.884;2023-08-20T12:21:34;1.40;;;1.30;;
16689;SDS011;8458;52.220;9.884;2023-08-20T12:24:02;1.73;;;1.60;;
16689;SDS011;8458;52.220;9.884;2023-08-20T12:26:30;1.52;;;1.42;;
16689;SDS011;8458;52.220;9.884;2023-08-20T12:28:56;1.80;;;1.70;;
16689;SDS011;8458;52.220;9.884;2023-08-20T12:31:23;1.33;;;1.33;;
16689;SDS011;8458;52.220;9.884;2023-08-20T12:33:49;1.60;;;1.50;;
16689;SDS011;8458;52.220;9.884;2023-08-20T12:36:15;1.85;;;1.75;;
16689;SDS011;8458;52.220;9.884;2023-08-20T12:38:42;2.00;;;1.90;;
16689;SDS011;8458;52.220;9.884;2023-08-20T12:41:10;1.90;;;1.70;;
16689;SDS011;8458;52.220;9.884;2023-08-20T12:43:36;2.05;;;1.92;;
16689;SDS011;8458;52.220;9.884;2023-08-20T12:46:03;1.92;;;1.83;;
16689;SDS011;8458;52.220;9.884;2023-08-20T12:48:29;2.20;;;1.95;;
16689;SDS011;8458;52.220;9.884;2023-08-20T12:50:56;1.90;;;1.80;;
16689;SDS011;8458;52.220;9.884;2023-08-20T12:53:23;2.00;;;1.90;;
16689;SDS011;8458;52.220;9.884;2023-08-20T12:55:49;2.15;;;2.05;;
16689;SDS011;8458;52.220;9.884;2023-08-20T12:58:17;2.13;;;2.00;;
16689;SDS011;8458;52.220;9.884;2023-08-20T13:00:43;1.98;;;1.88;;
16689;SDS011;8458;52.220;9.884;2023-08-20T13:03:10;2.30;;;2.10;;
16689;SDS011;8458;52.220;9.884;2023-08-20T13:05:37;2.40;;;2.20;;
16689;SDS011;8458;52.220;9.884;2023-08-20T13:08:04;2.65;;;2.10;;
16689;SDS011;8458;52.220;9.884;2023-08-20T13:10:32;2.30;;;2.10;;
16689;SDS011;8458;52.220;9.884;2023-08-20T13:13:00;1.92;;;1.80;;
16689;SDS011;8458;52.220;9.884;2023-08-20T13:15:29;2.28;;;2.17;;
16689;SDS011;8458;52.220;9.884;2023-08-20T13:17:56;2.05;;;1.95;;
16689;SDS011;8458;52.220;9.884;2023-08-20T13:20:23;2.13;;;1.88;;
16689;SDS011;8458;52.220;9.884;2023-08-20T13:22:50;2.47;;;2.13;;
16689;SDS011;8458;52.220;9.884;2023-08-20T13:25:18;2.15;;;2.05;;
16689;SDS011;8458;52.220;9.884;2023-08-20T13:27:46;2.50;;;2.30;;
16689;SDS011;8458;52.220;9.884;2023-08-20T13:30:13;2.50;;;2.00;;
16689;SDS011;8458;52.220;9.884;2023-08-20T13:32:41;2.58;;;2.05;;
16689;SDS011;8458;52.220;9.884;2023-08-20T13:35:07;2.35;;;2.15;;
16689;SDS011;8458;52.220;9.884;2023-08-20T13:37:34;1.92;;;1.83;;
16689;SDS011;8458;52.220;9.884;2023-08-20T13:40:01;1.88;;;1.77;;
16689;SDS011;8458;52.220;9.884;2023-08-20T13:42:28;2.10;;;2.00;;
16689;SDS011;8458;52.220;9.884;2023-08-20T13:44:55;2.10;;;2.00;;
16689;SDS011;8458;52.220;9.884;2023-08-20T13:47:21;2.83;;;2.33;;
16689;SDS011;8458;52.220;9.884;2023-08-20T13:49:49;2.20;;;2.00;;
16689;SDS011;8458;52.220;9.884;2023-08-20T13:52:16;2.53;;;2.38;;
16689;SDS011;8458;52.220;9.884;2023-08-20T13:54:42;2.28;;;2.00;;
16689;SDS011;8458;52.220;9.884;2023-08-20T13:57:08;2.40;;;2.20;;
16689;SDS011;8458;52.220;9.884;2023-08-20T13:59:35;2.45;;;2.00;;
16689;SDS011;8458;52.220;9.884;2023-08-20T14:02:01;2.30;;;2.17;;
16689;SDS011;8458;52.220;9.884;2023-08-20T14:04:28;2.20;;;2.10;;
16689;SDS011;8458;52.220;9.884;2023-08-20T14:06:56;2.10;;;2.00;;
16689;SDS011;8458;52.220;9.884;2023-08-20T14:09:22;2.20;;;2.00;;
16689;SDS011;8458;52.220;9.884;2023-08-20T14:11:50;2.30;;;2.10;;
16689;SDS011;8458;52.220;9.884;2023-08-20T14:14:16;2.05;;;1.90;;
16689;SDS011;8458;52.220;9.884;2023-08-20T14:16:43;2.50;;;2.30;;
16689;SDS011;8458;52.220;9.884;2023-08-20T14:19:09;2.17;;;1.95;;
16689;SDS011;8458;52.220;9.884;2023-08-20T14:21:36;2.13;;;2.00;;
16689;SDS011;8458;52.220;9.884;2023-08-20T14:24:04;2.30;;;2.10;;
16689;SDS011;8458;52.220;9.884;2023-08-20T14:26:30;2.25;;;2.10;;
16689;SDS011;8458;52.220;9.884;2023-08-20T14:28:57;2.10;;;2.00;;
16689;SDS011;8458;52.220;9.884;2023-08-20T14:31:24;2.72;;;2.13;;
16689;SDS011;8458;52.220;9.884;2023-08-20T14:33:50;2.33;;;2.17;;
16689;SDS011;8458;52.220;9.884;2023-08-20T14:36:17;2.13;;;1.92;;
16689;SDS011;8458;52.220;9.884;2023-08-20T14:38:44;2.42;;;2.17;;
16689;SDS011;8458;52.220;9.884;2023-08-20T14:41:12;2.00;;;1.90;;
16689;SDS011;8458;52.220;9.884;2023-08-20T14:43:38;2.15;;;2.05;;
16689;SDS011;8458;52.220;9.884;2023-08-20T14:46:06;2.20;;;1.98;;
16689;SDS011;8458;52.220;9.884;2023-08-20T14:48:33;1.80;;;1.70;;
16689;SDS011;8458;52.220;9.884;2023-08-20T14:51:00;2.13;;;2.00;;
16689;SDS011;8458;52.220;9.884;2023-08-20T14:53:28;1.95;;;1.85;;
16689;SDS011;8458;52.220;9.884;2023-08-20T14:55:54;2.05;;;1.95;;
16689;SDS011;8458;52.220;9.884;2023-08-20T14:58:22;1.98;;;1.80;;
16689;SDS011;8458;52.220;9.884;2023-08-20T15:00:49;1.80;;;1.42;;
16689;SDS011;8458;52.220;9.884;2023-08-20T15:03:15;1.70;;;1.60;;